createdAt,value
2022-10-06T00:01:05.179Z,98920.92
2022-10-06T00:03:48.846Z,98920.83
2022-10-06T00:06:21.583Z,98922.51
2022-10-06T00:08:54.033Z,98930.05
2022-10-06T00:11:26.381Z,98926.77
2022-10-06T00:13:58.767Z,98932.17
2022-10-06T00:16:30.919Z,98932.95
2022-10-06T00:19:03.165Z,98932.38
2022-10-06T00:21:35.476Z,98930.80
2022-10-06T00:24:08.254Z,98935.52
2022-10-06T00:26:42.597Z,98933.13
2022-10-06T00:29:14.916Z,98936.27
2022-10-06T00:31:47.116Z,98938.93
2022-10-06T00:34:19.568Z,98937.53
2022-10-06T00:36:52.064Z,98934.98
2022-10-06T00:39:24.685Z,98932.40
2022-10-06T00:41:56.992Z,98929.67
2022-10-06T00:44:29.402Z,98934.82
2022-10-06T00:47:03.353Z,98935.48
2022-10-06T00:49:39.823Z,98929.55
2022-10-06T00:52:18.236Z,98924.42
2022-10-06T00:54:50.985Z,98934.46
2022-10-06T00:57:23.936Z,98932.64
2022-10-06T00:59:57.296Z,98931.66
2022-10-06T01:02:35.634Z,98935.63
2022-10-06T01:05:11.064Z,98929.86
2022-10-06T01:07:43.490Z,98932.69
2022-10-06T01:10:15.933Z,98934.03
2022-10-06T01:12:52.228Z,98933.59
2022-10-06T01:15:26.163Z,98931.52
2022-10-06T01:18:03.348Z,98934.75
2022-10-06T01:20:38.572Z,98934.52
2022-10-06T01:23:12.310Z,98934.20
2022-10-06T01:25:47.345Z,98934.16
2022-10-06T01:28:21.430Z,98934.98
2022-10-06T01:31:01.811Z,98934.38
2022-10-06T01:33:35.802Z,98936.95
2022-10-06T01:36:09.214Z,98932.91
2022-10-06T01:38:41.816Z,98930.98
2022-10-06T01:41:16.711Z,98929.30
2022-10-06T01:43:49.015Z,98927.52
2022-10-06T01:46:23.886Z,98924.80
2022-10-06T01:48:56.238Z,98929.34
2022-10-06T01:51:29.402Z,98927.18
2022-10-06T01:54:01.666Z,98928.58
2022-10-06T01:56:34.132Z,98925.96
2022-10-06T01:59:07.092Z,98929.31
2022-10-06T02:01:41.423Z,98931.79
2022-10-06T02:04:13.573Z,98934.63
2022-10-06T02:06:47.630Z,98937.75
2022-10-06T02:09:19.817Z,98934.23
2022-10-06T02:11:52.158Z,98936.39
2022-10-06T02:14:24.804Z,98937.08
2022-10-06T02:16:56.902Z,98939.57
2022-10-06T02:19:29.477Z,98942.03
2022-10-06T02:22:04.069Z,98942.31
2022-10-06T02:24:36.393Z,98946.46
2022-10-06T02:27:11.536Z,98948.21
2022-10-06T02:29:44.903Z,98944.12
2022-10-06T02:32:20.971Z,98944.08
2022-10-06T02:34:57.175Z,98943.71
2022-10-06T02:37:29.609Z,98946.84
2022-10-06T02:40:06.144Z,98950.66
2022-10-06T02:42:40.172Z,98946.36
2022-10-06T02:45:13.535Z,98946.97
2022-10-06T02:47:46.571Z,98948.69
2022-10-06T02:50:19.406Z,98948.27
2022-10-06T02:52:51.736Z,98947.79
2022-10-06T02:55:26.284Z,98948.70
2022-10-06T02:57:58.466Z,98947.65
2022-10-06T03:00:30.984Z,98950.88
2022-10-06T03:03:03.639Z,98951.63
2022-10-06T03:05:36.063Z,98951.13
2022-10-06T03:08:11.589Z,98954.01
2022-10-06T03:10:43.775Z,98960.48
2022-10-06T03:13:16.116Z,98962.46
2022-10-06T03:15:48.472Z,98958.55
2022-10-06T03:18:21.274Z,98965.67
2022-10-06T03:20:54.159Z,98966.98
2022-10-06T03:23:26.798Z,98966.34
2022-10-06T03:26:02.079Z,98963.55
2022-10-06T03:28:35.895Z,98967.61
2022-10-06T03:31:09.087Z,98968.31
2022-10-06T03:33:41.870Z,98970.92
2022-10-06T03:36:19.159Z,98971.15
2022-10-06T03:38:52.145Z,98974.89
2022-10-06T03:41:28.129Z,98979.23
2022-10-06T03:44:01.584Z,98974.85
2022-10-06T03:46:38.315Z,98977.39
2022-10-06T03:49:12.105Z,98974.61
2022-10-06T03:51:49.398Z,98977.05
2022-10-06T03:54:24.394Z,98980.27
2022-10-06T03:56:58.233Z,98982.98
2022-10-06T03:59:34.414Z,98987.44
2022-10-06T04:02:11.453Z,98989.69
2022-10-06T04:04:43.838Z,98995.54
2022-10-06T04:07:19.535Z,98993.80
2022-10-06T04:09:52.243Z,98995.15
2022-10-06T04:12:24.921Z,99001.56
2022-10-06T04:15:00.289Z,99002.80
2022-10-06T04:17:33.599Z,99004.17
2022-10-06T04:20:09.939Z,99002.50
2022-10-06T04:22:42.193Z,99006.51
2022-10-06T04:25:14.615Z,99010.54
2022-10-06T04:27:47.068Z,99012.71
2022-10-06T04:30:21.094Z,99009.67
2022-10-06T04:32:53.708Z,99012.05
2022-10-06T04:35:27.528Z,99014.46
2022-10-06T04:38:00.830Z,99018.17
2022-10-06T04:40:33.470Z,99019.10
2022-10-06T04:43:06.024Z,99021.23
2022-10-06T04:45:38.848Z,99022.70
2022-10-06T04:48:11.204Z,99017.17
2022-10-06T04:50:44.840Z,99016.00
2022-10-06T04:53:19.719Z,99013.73
2022-10-06T04:56:01.209Z,99018.55
2022-10-06T04:58:36.595Z,99018.98
2022-10-06T05:01:17.115Z,99020.35
2022-10-06T05:03:51.197Z,99022.59
2022-10-06T05:06:25.817Z,99021.61
2022-10-06T05:09:00.317Z,99026.22
2022-10-06T05:11:34.469Z,99026.91
2022-10-06T05:14:09.328Z,99028.44
2022-10-06T05:16:44.852Z,99031.26
2022-10-06T05:19:18.211Z,99036.42
2022-10-06T05:21:50.476Z,99032.82
2022-10-06T05:24:26.777Z,99036.55
2022-10-06T05:27:02.176Z,99041.04
2022-10-06T05:29:35.456Z,99045.42
2022-10-06T05:32:10.229Z,99051.94
2022-10-06T05:34:44.452Z,99055.21
2022-10-06T05:37:16.622Z,99061.27
2022-10-06T05:39:48.896Z,99063.27
2022-10-06T05:42:26.196Z,99071.52
2022-10-06T05:45:01.335Z,99074.83
2022-10-06T05:47:33.957Z,99078.10
2022-10-06T05:50:07.869Z,99079.95
2022-10-06T05:52:40.614Z,99085.81
2022-10-06T05:55:13.409Z,99084.23
2022-10-06T05:57:45.723Z,99086.22
2022-10-06T06:00:22.396Z,99093.11
2022-10-06T06:02:55.080Z,99098.25
2022-10-06T06:05:27.243Z,99100.73
2022-10-06T06:07:59.546Z,99104.08
2022-10-06T06:10:32.217Z,99102.05
2022-10-06T06:13:04.336Z,99106.84
2022-10-06T06:16:04.456Z,99115.70
2022-10-06T06:18:39.352Z,99114.56
2022-10-06T06:21:15.917Z,99110.43
2022-10-06T06:23:51.367Z,99106.51
2022-10-06T06:26:25.322Z,99118.20
2022-10-06T06:29:04.154Z,99121.71
2022-10-06T06:31:40.358Z,99130.32
2022-10-06T06:34:13.080Z,99134.33
2022-10-06T06:36:54.585Z,99138.73
2022-10-06T06:39:27.950Z,99141.02
2022-10-06T06:42:02.293Z,99145.85
2022-10-06T06:44:46.744Z,99143.80
2022-10-06T06:57:59.455Z,99169.43
2022-10-06T07:04:58.359Z,99150.36
2022-10-06T07:08:21.395Z,99158.52
2022-10-06T07:10:55.642Z,99170.50
2022-10-06T07:13:57.794Z,99176.31
2022-10-06T07:29:24.384Z,99192.96
2022-10-06T07:32:57.031Z,99197.89
2022-10-06T07:40:19.703Z,99177.55
2022-10-06T07:42:58.348Z,99183.88
2022-10-06T07:50:50.641Z,99191.20
2022-10-06T07:58:24.339Z,99190.94
2022-10-06T08:25:08.248Z,99154.77
2022-10-06T08:27:44.677Z,99155.60
2022-10-06T08:39:03.598Z,99171.92
2022-10-06T08:42:18.640Z,99163.70
2022-10-06T08:49:22.038Z,99163.36
2022-10-06T08:56:48.831Z,99147.09
2022-10-06T08:59:22.539Z,99139.07
2022-10-06T09:11:25.935Z,99094.47
2022-10-06T09:15:07.977Z,99087.06
2022-10-06T09:31:33.038Z,99026.00
2022-10-06T09:42:50.168Z,99062.16
2022-10-06T09:49:32.506Z,99092.66
2022-10-06T09:52:11.828Z,99110.55
2022-10-06T09:59:07.354Z,99149.21
2022-10-06T10:01:41.710Z,99172.92
2022-10-06T10:09:38.527Z,99221.25
2022-10-06T10:16:43.761Z,99258.73
2022-10-06T10:24:27.265Z,99294.06
2022-10-06T10:31:59.163Z,99319.81
2022-10-06T10:48:30.612Z,99383.33
2022-10-06T10:55:30.912Z,99405.10
2022-10-06T10:58:14.897Z,99412.46
2022-10-06T11:00:51.525Z,99413.41
2022-10-06T11:03:23.700Z,99417.84
2022-10-06T11:06:15.847Z,99414.01
2022-10-06T11:08:57.301Z,99413.98
2022-10-06T11:11:51.322Z,99412.58
2022-10-06T11:15:13.732Z,99414.71
2022-10-06T11:18:26.226Z,99418.75
2022-10-06T11:21:04.085Z,99417.69
2022-10-06T11:23:48.768Z,99417.11
2022-10-06T11:26:32.646Z,99419.48
2022-10-06T11:29:19.114Z,99417.08
2022-10-06T11:32:02.126Z,99416.65
2022-10-06T11:34:34.460Z,99414.99
2022-10-06T11:37:17.812Z,99415.11
2022-10-06T11:39:56.645Z,99411.13
2022-10-06T11:42:37.729Z,99410.39
2022-10-06T11:45:16.475Z,99409.18
2022-10-06T11:48:11.036Z,99410.39
2022-10-06T11:50:45.285Z,99416.24
2022-10-06T11:53:39.388Z,99415.77
2022-10-06T11:59:24.533Z,99414.50
2022-10-06T12:02:03.553Z,99413.86
2022-10-06T12:04:36.114Z,99413.82
2022-10-06T12:07:11.053Z,99410.38
2022-10-06T12:10:15.577Z,99409.96
2022-10-06T12:13:06.565Z,99412.46
2022-10-06T12:19:27.142Z,99415.86
2022-10-06T12:22:11.232Z,99414.56
2022-10-06T12:24:47.716Z,99420.70
2022-10-06T12:27:33.514Z,99422.60
2022-10-06T12:30:19.460Z,99431.50
2022-10-06T12:32:57.435Z,99431.83
2022-10-06T12:35:34.783Z,99438.89
2022-10-06T12:38:07.844Z,99435.52
2022-10-06T12:40:51.342Z,99436.63
2022-10-06T12:43:59.828Z,99435.25
2022-10-06T12:46:49.465Z,99438.23
2022-10-06T12:49:49.913Z,99441.02
2022-10-06T12:52:46.201Z,99441.38
2022-10-06T12:55:49.252Z,99437.40
2022-10-06T12:58:28.606Z,99430.23
2022-10-06T13:01:05.862Z,99426.92
2022-10-06T13:03:38.925Z,99426.00
2022-10-06T13:06:11.938Z,99427.27
2022-10-06T13:08:44.126Z,99426.48
2022-10-06T13:11:23.354Z,99437.34
2022-10-06T13:13:59.836Z,99431.62
2022-10-06T13:16:39.402Z,99435.61
2022-10-06T13:19:19.687Z,99439.07
2022-10-06T13:21:53.153Z,99438.52
2022-10-06T13:24:28.718Z,99440.25
2022-10-06T13:27:02.971Z,99441.52
2022-10-06T13:29:35.641Z,99443.92
2022-10-06T13:32:19.430Z,99443.66
2022-10-06T13:34:51.652Z,99447.98
2022-10-06T13:37:23.836Z,99455.19
2022-10-06T13:39:56.103Z,99453.59
2022-10-06T13:42:29.106Z,99456.77
2022-10-06T13:45:06.980Z,99457.52
2022-10-06T13:47:40.381Z,99456.23
2022-10-06T13:50:20.198Z,99461.86
2022-10-06T13:52:52.418Z,99460.73
2022-10-06T13:55:26.528Z,99468.77
2022-10-06T13:58:13.859Z,99469.02
2022-10-06T14:00:56.436Z,99471.84
2022-10-06T14:06:19.080Z,99477.16
2022-10-06T14:08:55.132Z,99472.62
2022-10-06T14:11:32.301Z,99480.97
2022-10-06T14:14:07.806Z,99485.62
2022-10-06T14:22:34.353Z,99495.60
2022-10-06T14:29:25.258Z,99497.83
2022-10-06T14:31:57.321Z,99495.73
2022-10-06T14:38:17.927Z,99510.27
2022-10-06T14:46:04.043Z,99516.33
2022-10-06T14:49:27.748Z,99513.73
2022-10-06T14:52:00.243Z,99517.13
2022-10-06T14:54:47.552Z,99516.00
2022-10-06T15:10:19.984Z,99528.20
2022-10-06T15:12:58.700Z,99525.04
2022-10-06T15:15:34.170Z,99534.73
2022-10-06T15:18:57.154Z,99536.63
2022-10-06T15:30:15.584Z,99539.99
2022-10-06T15:32:55.633Z,99542.80
2022-10-06T15:35:27.714Z,99546.77
2022-10-06T15:38:06.702Z,99550.16
2022-10-06T15:40:38.885Z,99551.05
2022-10-06T15:48:09.451Z,99564.58
2022-10-06T15:50:42.148Z,99567.78
2022-10-06T15:53:23.582Z,99566.47
2022-10-06T15:56:44.536Z,99570.20
2022-10-06T15:59:24.516Z,99573.71
2022-10-06T16:01:58.417Z,99575.98
2022-10-06T16:05:02.252Z,99570.77
2022-10-06T16:16:11.801Z,99590.11
2022-10-06T16:18:44.000Z,99588.70
2022-10-06T16:21:33.366Z,99587.53
2022-10-06T16:24:11.938Z,99592.09
2022-10-06T16:26:44.357Z,99600.12
2022-10-06T16:29:17.037Z,99600.41
2022-10-06T16:32:28.572Z,99598.52
2022-10-06T16:39:42.790Z,99605.73
2022-10-06T16:46:47.346Z,99609.91
2022-10-06T16:49:19.960Z,99622.50
2022-10-06T16:51:59.064Z,99631.43
2022-10-06T16:54:43.630Z,99634.83
2022-10-06T16:57:15.807Z,99640.92
2022-10-06T17:08:18.876Z,99663.02
2022-10-06T17:11:47.845Z,99663.61
2022-10-06T17:18:55.771Z,99664.70
2022-10-06T17:21:44.931Z,99667.52
2022-10-06T17:25:12.926Z,99667.16
2022-10-06T17:27:45.051Z,99666.20
2022-10-06T17:30:17.369Z,99673.91
2022-10-06T17:32:57.058Z,99678.89
2022-10-06T17:35:46.788Z,99676.27
2022-10-06T17:47:30.882Z,99693.29
2022-10-06T17:54:07.550Z,99702.42
2022-10-06T18:01:36.722Z,99704.04
2022-10-06T18:13:53.195Z,99705.25
2022-10-06T18:21:15.656Z,99715.14
2022-10-06T18:23:55.148Z,99717.23
2022-10-06T18:26:29.935Z,99716.45
2022-10-06T18:29:04.485Z,99715.80
2022-10-06T18:49:36.564Z,99736.98
2022-10-06T18:56:41.651Z,99744.56
2022-10-06T18:59:16.461Z,99741.91
2022-10-06T19:02:38.901Z,99746.27
2022-10-06T19:05:12.058Z,99751.12
2022-10-06T19:07:44.710Z,99752.44
2022-10-06T19:10:17.911Z,99753.06
2022-10-06T19:12:49.887Z,99756.02
2022-10-06T19:15:21.965Z,99755.64
2022-10-06T19:17:53.976Z,99756.45
2022-10-06T19:20:26.412Z,99758.00
2022-10-06T19:22:58.749Z,99758.16
2022-10-06T19:25:33.370Z,99762.65
2022-10-06T19:28:05.901Z,99763.63
2022-10-06T19:30:38.053Z,99765.81
2022-10-06T19:33:10.312Z,99770.03
2022-10-06T19:35:51.313Z,99767.65
2022-10-06T19:38:23.463Z,99769.44
2022-10-06T19:41:15.845Z,99765.92
2022-10-06T19:43:47.878Z,99770.48
2022-10-06T19:46:20.150Z,99768.43
2022-10-06T19:48:58.614Z,99770.73
2022-10-06T19:51:30.674Z,99774.54
2022-10-06T19:54:03.736Z,99776.85
2022-10-06T19:56:35.912Z,99780.04
2022-10-06T19:59:09.107Z,99784.06
2022-10-06T20:01:42.338Z,99781.92
2022-10-06T20:05:00.036Z,99776.72
2022-10-06T20:07:32.099Z,99782.63
2022-10-06T20:10:04.419Z,99780.19
2022-10-06T20:13:23.528Z,99784.23
2022-10-06T20:15:55.645Z,99786.65
2022-10-06T20:18:29.957Z,99790.05
2022-10-06T20:21:02.003Z,99792.19
2022-10-06T20:24:18.496Z,99781.98
2022-10-06T20:26:52.359Z,99789.85
2022-10-06T20:29:26.478Z,99789.40
2022-10-06T20:31:59.718Z,99794.36
2022-10-06T20:34:32.916Z,99798.35
2022-10-06T20:37:06.706Z,99799.17
2022-10-06T20:39:56.734Z,99798.91
2022-10-06T20:43:04.332Z,99805.53
2022-10-06T20:46:08.787Z,99808.40
2022-10-06T20:48:40.835Z,99804.14
2022-10-06T20:51:16.231Z,99805.36
2022-10-06T20:53:48.605Z,99804.30
2022-10-06T20:56:21.372Z,99807.67
2022-10-06T20:58:53.631Z,99806.45
2022-10-06T21:01:25.946Z,99804.25
2022-10-06T21:03:57.932Z,99808.34
2022-10-06T21:06:30.335Z,99812.56
2022-10-06T21:09:03.834Z,99810.53
2022-10-06T21:11:36.234Z,99814.20
2022-10-06T21:14:12.709Z,99813.54
2022-10-06T21:16:46.537Z,99815.70
2022-10-06T21:19:20.067Z,99817.73
2022-10-06T21:21:55.903Z,99816.43
2022-10-06T21:24:27.918Z,99812.51
2022-10-06T21:27:00.422Z,99815.10
2022-10-06T21:29:32.450Z,99813.86
2022-10-06T21:32:05.272Z,99818.27
2022-10-06T21:34:37.456Z,99820.63
2022-10-06T21:37:10.261Z,99820.40
2022-10-06T21:39:45.581Z,99822.95
2022-10-06T21:42:19.401Z,99826.10
2022-10-06T21:44:51.751Z,99820.46
2022-10-06T21:47:23.811Z,99826.07
2022-10-06T21:49:55.977Z,99820.98
2022-10-06T21:52:28.044Z,99826.83
2022-10-06T21:55:00.228Z,99821.61
2022-10-06T21:57:32.405Z,99822.09
2022-10-06T22:00:05.153Z,99821.02
2022-10-06T22:02:45.080Z,99821.05
2022-10-06T22:05:17.518Z,99818.92
2022-10-06T22:07:49.556Z,99817.75
2022-10-06T22:10:21.503Z,99816.38
2022-10-06T22:12:54.558Z,99818.27
2022-10-06T22:15:26.540Z,99821.73
2022-10-06T22:17:58.744Z,99822.48
2022-10-06T22:20:32.137Z,99818.34
2022-10-06T22:23:05.125Z,99820.13
2022-10-06T22:25:37.536Z,99816.45
2022-10-06T22:28:10.491Z,99817.96
2022-10-06T22:30:42.571Z,99824.20
2022-10-06T22:33:14.658Z,99823.08
2022-10-06T22:35:53.205Z,99822.08
2022-10-06T22:38:25.776Z,99818.81
2022-10-06T22:41:01.940Z,99818.38
2022-10-06T22:43:34.430Z,99817.45
2022-10-06T22:46:08.046Z,99824.63
2022-10-06T22:48:40.693Z,99823.50
2022-10-06T22:51:12.850Z,99823.30
2022-10-06T22:53:45.358Z,99827.43
2022-10-06T22:56:17.786Z,99828.39
2022-10-06T22:58:49.998Z,99825.81
2022-10-06T23:01:22.305Z,99828.48
2022-10-06T23:03:56.248Z,99829.38
2022-10-06T23:06:29.846Z,99829.08
2022-10-06T23:09:03.566Z,99834.80
2022-10-06T23:11:35.591Z,99830.96
2022-10-06T23:14:07.583Z,99830.07
2022-10-06T23:16:39.813Z,99831.39
2022-10-06T23:19:13.219Z,99835.48
2022-10-06T23:21:45.246Z,99836.59
2022-10-06T23:24:17.328Z,99834.69
2022-10-06T23:26:49.472Z,99834.37
2022-10-06T23:29:21.606Z,99834.16
2022-10-06T23:31:53.910Z,99834.63
2022-10-06T23:34:26.065Z,99834.65
2022-10-06T23:36:58.015Z,99830.52
2022-10-06T23:39:30.064Z,99834.21
2022-10-06T23:42:02.269Z,99828.77
2022-10-06T23:44:34.469Z,99829.91
2022-10-06T23:47:06.836Z,99830.80
2022-10-06T23:49:41.431Z,99830.70
2022-10-06T23:52:16.572Z,99829.66
2022-10-06T23:54:49.687Z,99830.34
2022-10-06T23:57:22.086Z,99828.92
2022-10-06T23:59:54.199Z,99828.17
